• Join FlightAware (Why Join?)
  • Login
  • US Flag 
10:36PM EDT


 

Airport Tracker/Info


-or-


 

Live Flight TrackerFlight Track Log ✈ DAL6234 ✈ 12-Apr-2013 ✈ KSYR - KLGA

Flight Track Log - Related Links

Times and Time Zones

All times are in EDT time to prevent confusion due to time zone crossing. See the DAL6234 flight status page for this flight to view local times or setup timezone preferences in your user account.

Time Position Orientation Groundspeed Altitude Reporting Facility
EDT Latitude Longitude Course Direction KTS MPH feet Rate Location/Type
08:47PM 43.1047 -76.0947 135° Southeast 157 181 1,200  Level Boston Center
08:48PM 43.0706 -76.0472 135° Southeast 206 237 3,500 2,100 Climbing Boston Center
08:49PM 43.0286 -75.9936 137° Southeast 263 303 5,000 1,560 Climbing Boston Center
08:49PM 43.0106 -75.9697 136° Southeast 292 336 5,400 2,340 Climbing Boston Center
08:50PM 42.9606 -75.9044 136° Southeast 292 336 8,100 3,060 Climbing Boston Center
08:51PM 42.8986 -75.8161 134° Southeast 293 337 11,600 2,460 Climbing Boston Center
08:52PM 42.8322 -75.7303 137° Southeast 310 357 13,000 2,040 Climbing Boston Center
08:53PM 42.7619 -75.6358 135° Southeast 332 382 15,600 2,220 Climbing Boston Center
08:54PM 42.6756 -75.5214 136° Southeast 352 405 18,100 2,040 Climbing Boston Center
08:55PM 42.5989 -75.4189 135° Southeast 368 423 20,200 1,440 Climbing Boston Center
08:56PM 42.5203 -75.3136 135° Southeast 382 440 21,000 360 Climbing Boston Center
08:57PM 42.4483 -75.1919 129° Southeast 394 453 21,000  Level Boston Center
08:58PM 42.3975 -75.0519 116° Southeast 410 472 21,000  Level Boston Center
08:59PM 42.3422 -74.9064 117° Southeast 421 484 21,000  Level Boston Center
09:00PM 42.2892 -74.7611 116° Southeast 426 490 21,000  Level Boston Center
09:01PM 42.2356 -74.6189 117° Southeast 426 490 21,000 -360 Level Boston Center
09:02PM 42.1736 -74.4878 122° Southeast 426 490 20,400 -960 Descending Boston Center
09:03PM 42.0769 -74.4036 147° Southeast 405 466 19,100 -1,380 Descending Boston Center
09:04PM 41.9806 -74.3225 148° Southeast 410 472 17,700 -1,380 Descending Boston Center
09:05PM 41.8900 -74.2500 149° Southeast 392 451 16,400 -1,260 Descending Boston Center
09:06PM 41.7994 -74.1750 148° Southeast 387 445 15,200 -660 Descending Boston Center
09:07PM 41.7169 -74.1089 149° Southeast 366 421 15,100 -120 Descending Boston Center
09:08PM 41.6450 -74.0514 149° Southeast 326 375 15,000 -840 Descending Boston Center
09:09PM 41.5500 -73.9833 152° Southeast 299 344 13,400 -1,440 Descending New York TRACON
09:10PM 41.4833 -73.9167 143° Southeast 283 326 12,000 -1,440 Descending New York TRACON
09:11PM 41.4167 -73.8667 151° Southeast 282 325 10,600 -1,380 Descending New York TRACON
09:12PM 41.3667 -73.8167 143° Southeast 277 319 9,300 -1,260 Descending New York TRACON
09:13PM 41.3000 -73.7500 143° Southeast 266 306 8,100 -660 Descending New York TRACON
09:14PM 41.2333 -73.7000 151° Southeast 272 313 8,000 -540 Descending New York TRACON
09:15PM 41.2000 -73.6167 118° Southeast 265 305 7,100 -1,080 Descending New York TRACON
09:16PM 41.1667 -73.5333 118° Southeast 247 284 5,900 -1,080 Descending New York TRACON
09:17PM 41.1333 -73.4667 124° Southeast 246 283 5,000 -900 Descending New York TRACON
09:18PM 41.0667 -73.4500 169° South 235 270 4,100 -540 Descending New York TRACON
09:19PM 41.0333 -73.4667 201° Southwest 207 238 4,000 -60 Descending New York TRACON
09:20PM 41.0167 -73.5500 255° West 213 245 4,000  Level New York TRACON
09:21PM 41.0000 -73.6167 252° West 207 238 4,000  Level New York TRACON
09:22PM 40.9833 -73.7000 255° West 206 237 4,000  Level New York TRACON
09:23PM 40.9667 -73.7667 252° West 206 237 4,000  Level New York TRACON
09:24PM 40.9500 -73.8333 252° West 205 236 4,000  Level New York TRACON
09:25PM 40.9333 -73.9000 252° West 206 237 4,000  Level New York TRACON
09:26PM 40.8667 -73.9333 201° Southwest 219 252 4,000  Level New York TRACON
09:27PM 40.8167 -73.9667 207° Southwest 218 251 4,000  Level New York TRACON
09:28PM 40.7667 -74.0000 207° Southwest 207 238 4,000  Level New York TRACON
09:29PM 40.7167 -74.0333 207° Southwest 177 204 4,000  Level New York TRACON
09:30PM 40.6833 -74.0667 217° Southwest 181 208 4,000  Level New York TRACON
09:31PM 40.6333 -74.1000 207° Southwest 188 216 4,000 -300 Level New York TRACON
09:32PM 40.5833 -74.0667 153° Southeast 203 234 3,500 -660 Descending New York TRACON
09:33PM 40.6000 -74.0167 66° East 204 235 2,700 -420 Descending New York TRACON
09:34PM 40.6500 -73.9833 27° Northeast 199 229 2,700 -480 Level New York TRACON
09:35PM 40.7000 -73.9500 27° Northeast 166 191 1,800 -840 Descending New York TRACON
09:36PM 40.7333 -73.9167 37° Northeast 118 136 1,100 -720 Descending New York TRACON